Time;durP1;ratioP1;P1;durP2;ratioP2;P2;SDS_P1;SDS_P2;PMS_P1;PMS_P2;Temp;Humidity;BMP_temperature;BMP_pressure;BME280_temperature;BME280_humidity;BME280_pressure;Samples;Min_cycle;Max_cycle;Signal;HPM_P1;HPM_P2
2024/01/17 00:02:09;;;;;;;20.92;14.63;;;;;;;;;;6246603;22;20087;-77
2024/01/17 00:04:36;;;;;;;22.73;14.32;;;;;;;;;;6247171;22;20024;-77
2024/01/17 00:07:03;;;;;;;16.75;12.50;;;;;;;;;;6245509;23;20020;-76
2024/01/17 00:09:30;;;;;;;19.95;13.38;;;;;;;;;;6247040;22;20058;-77
2024/01/17 00:11:58;;;;;;;19.10;14.23;;;;;;;;;;6247043;22;20027;-77
2024/01/17 00:14:25;;;;;;;19.30;14.63;;;;;;;;;;6246411;22;20036;-78
2024/01/17 00:16:51;;;;;;;17.52;12.40;;;;;;;;;;6247105;22;20016;-78
2024/01/17 00:19:18;;;;;;;17.73;12.63;;;;;;;;;;6246407;22;20438;-77
2024/01/17 00:21:47;;;;;;;18.73;12.57;;;;;;;;;;6247091;22;20016;-78
2024/01/17 00:24:14;;;;;;;18.80;12.55;;;;;;;;;;6246606;22;20020;-77
2024/01/17 00:26:41;;;;;;;17.30;12.60;;;;;;;;;;6247081;22;20020;-78
2024/01/17 00:29:07;;;;;;;19.00;11.73;;;;;;;;;;6246383;22;20016;-78
2024/01/17 00:31:34;;;;;;;22.33;12.57;;;;;;;;;;6246661;22;20012;-77
2024/01/17 00:34:01;;;;;;;16.60;11.43;;;;;;;;;;6246896;22;20016;-78
2024/01/17 00:36:28;;;;;;;20.33;10.93;;;;;;;;;;6246470;22;20044;-76
2024/01/17 00:38:55;;;;;;;19.45;10.63;;;;;;;;;;6246928;22;20023;-77
2024/01/17 00:41:21;;;;;;;17.40;10.68;;;;;;;;;;6246447;22;20665;-77
2024/01/17 00:43:48;;;;;;;16.38;10.13;;;;;;;;;;6246674;22;20449;-77
2024/01/17 00:46:15;;;;;;;16.08;10.05;;;;;;;;;;6246411;22;20055;-78
2024/01/17 00:48:41;;;;;;;16.17;9.93;;;;;;;;;;6248076;22;20074;-78
2024/01/17 00:51:08;;;;;;;13.60;9.50;;;;;;;;;;6273099;22;20445;-78
2024/01/17 00:53:35;;;;;;;13.23;9.20;;;;;;;;;;6249738;22;20074;-77
2024/01/17 00:56:02;;;;;;;11.65;8.70;;;;;;;;;;6248731;22;20016;-77
2024/01/17 00:58:29;;;;;;;12.27;8.80;;;;;;;;;;6246623;22;20329;-77
2024/01/17 01:00:55;;;;;;;17.25;9.85;;;;;;;;;;6246441;22;20016;-77
2024/01/17 01:03:22;;;;;;;12.13;8.48;;;;;;;;;;6244597;22;20023;-77
2024/01/17 01:05:49;;;;;;;15.88;8.65;;;;;;;;;;6246526;22;20078;-76
2024/01/17 01:08:16;;;;;;;12.55;9.10;;;;;;;;;;6246095;22;20085;-76
2024/01/17 01:10:42;;;;;;;19.48;9.38;;;;;;;;;;6246573;22;20020;-77
2024/01/17 01:13:09;;;;;;;15.77;9.63;;;;;;;;;;6245835;22;20015;-77
2024/01/17 01:15:36;;;;;;;19.27;9.05;;;;;;;;;;6246483;22;20016;-78
2024/01/17 01:18:03;;;;;;;15.18;8.27;;;;;;;;;;6246532;22;20021;-78
2024/01/17 01:20:30;;;;;;;17.45;9.27;;;;;;;;;;6246186;22;20385;-78
2024/01/17 01:22:57;;;;;;;15.98;8.45;;;;;;;;;;6246724;22;20024;-79
2024/01/17 01:25:24;;;;;;;12.77;9.10;;;;;;;;;;6245277;22;20074;-78
2024/01/17 01:27:50;;;;;;;14.38;8.43;;;;;;;;;;6246355;22;20031;-77
2024/01/17 01:30:17;;;;;;;11.55;8.15;;;;;;;;;;6246758;22;20074;-78
2024/01/17 01:32:44;;;;;;;10.05;7.82;;;;;;;;;;6245781;23;20020;-77
2024/01/17 01:35:11;;;;;;;9.30;7.63;;;;;;;;;;6247100;22;20396;-77
2024/01/17 01:37:38;;;;;;;12.05;8.23;;;;;;;;;;6246285;22;20020;-78
2024/01/17 01:40:07;;;;;;;10.90;8.13;;;;;;;;;;6246350;22;20008;-78
2024/01/17 01:42:34;;;;;;;10.30;8.30;;;;;;;;;;6245938;22;20457;-77
2024/01/17 01:45:01;;;;;;;11.90;9.35;;;;;;;;;;6246017;22;20020;-79
2024/01/17 01:47:29;;;;;;;10.63;8.45;;;;;;;;;;6245771;22;20020;-78
2024/01/17 01:49:56;;;;;;;10.13;8.00;;;;;;;;;;6246238;22;20091;-78
2024/01/17 01:52:23;;;;;;;11.98;8.48;;;;;;;;;;6245433;22;20425;-78
2024/01/17 01:54:50;;;;;;;8.93;7.30;;;;;;;;;;6246258;22;20023;-78
2024/01/17 01:57:17;;;;;;;9.90;8.02;;;;;;;;;;6245499;22;20023;-78
2024/01/17 01:59:45;;;;;;;10.65;8.13;;;;;;;;;;6246003;22;20043;-77
2024/01/17 02:02:13;;;;;;;11.32;7.93;;;;;;;;;;6245741;22;20019;-78
2024/01/17 02:04:41;;;;;;;9.32;7.75;;;;;;;;;;6246111;22;20016;-78
2024/01/17 02:07:11;;;;;;;9.63;8.13;;;;;;;;;;6245456;22;20020;-77
2024/01/17 02:09:38;;;;;;;10.13;7.85;;;;;;;;;;6246083;22;20373;-78
2024/01/17 02:12:07;;;;;;;8.35;7.22;;;;;;;;;;6245639;22;20020;-77
2024/01/17 02:14:39;;;;;;;11.65;8.25;;;;;;;;;;6245828;22;20815;-78
2024/01/17 02:17:06;;;;;;;9.65;7.70;;;;;;;;;;6245398;22;20016;-76
2024/01/17 02:19:33;;;;;;;9.52;7.55;;;;;;;;;;6246114;22;20024;-77
2024/01/17 02:22:00;;;;;;;10.07;7.97;;;;;;;;;;6246131;22;20019;-78
2024/01/17 02:24:28;;;;;;;9.00;7.97;;;;;;;;;;6245552;22;20020;-78
2024/01/17 02:26:59;;;;;;;9.82;7.68;;;;;;;;;;6245822;22;20337;-78
2024/01/17 02:29:28;;;;;;;10.63;8.20;;;;;;;;;;6269022;22;20519;-78
2024/01/17 02:31:56;;;;;;;10.55;8.73;;;;;;;;;;6245648;22;20092;-77
2024/01/17 02:34:23;;;;;;;11.13;8.45;;;;;;;;;;6245106;22;20046;-78
2024/01/17 02:36:50;;;;;;;13.25;8.50;;;;;;;;;;6245982;22;20016;-77
2024/01/17 02:39:16;;;;;;;13.75;8.90;;;;;;;;;;6245254;22;20179;-78
2024/01/17 02:41:43;;;;;;;12.15;8.15;;;;;;;;;;6245715;22;20024;-78
2024/01/17 02:44:10;;;;;;;10.38;8.23;;;;;;;;;;6245197;22;20020;-78
2024/01/17 02:46:37;;;;;;;12.20;8.93;;;;;;;;;;6245126;22;20023;-78
2024/01/17 02:49:03;;;;;;;13.75;8.63;;;;;;;;;;6245010;22;20078;-77
2024/01/17 02:51:31;;;;;;;11.40;8.82;;;;;;;;;;6245830;22;20090;-77
2024/01/17 02:53:57;;;;;;;12.55;8.63;;;;;;;;;;6243892;23;20091;-77
2024/01/17 02:56:24;;;;;;;17.52;9.13;;;;;;;;;;6243583;22;20024;-79
2024/01/17 02:58:51;;;;;;;19.67;8.38;;;;;;;;;;6245542;22;20092;-77
2024/01/17 03:01:18;;;;;;;14.07;9.05;;;;;;;;;;6245318;22;20437;-78
2024/01/17 03:03:45;;;;;;;15.45;8.77;;;;;;;;;;6245834;22;20038;-77
2024/01/17 03:06:11;;;;;;;18.35;9.23;;;;;;;;;;6245443;22;20020;-77
2024/01/17 03:08:38;;;;;;;13.57;9.00;;;;;;;;;;6244548;23;20087;-78
2024/01/17 03:11:05;;;;;;;16.35;8.88;;;;;;;;;;6245498;22;20091;-78
2024/01/17 03:13:32;;;;;;;14.77;8.57;;;;;;;;;;6246167;22;20027;-79
2024/01/17 03:15:58;;;;;;;15.73;9.05;;;;;;;;;;6246867;22;20016;-77
2024/01/17 03:18:25;;;;;;;24.10;9.40;;;;;;;;;;6246762;22;20016;-77
2024/01/17 03:20:52;;;;;;;18.77;8.82;;;;;;;;;;6246459;22;20051;-78
2024/01/17 03:23:19;;;;;;;16.55;9.13;;;;;;;;;;6245605;22;20016;-78
2024/01/17 03:25:45;;;;;;;20.38;9.00;;;;;;;;;;6246103;22;20024;-78
2024/01/17 03:28:12;;;;;;;19.05;9.63;;;;;;;;;;6245569;22;20013;-76
2024/01/17 03:30:39;;;;;;;16.52;8.77;;;;;;;;;;6245701;22;20012;-77
2024/01/17 03:33:06;;;;;;;15.10;7.70;;;;;;;;;;6244964;22;20016;-76
2024/01/17 03:35:32;;;;;;;14.98;8.50;;;;;;;;;;6245780;22;20078;-78
2024/01/17 03:37:59;;;;;;;19.17;8.00;;;;;;;;;;6245594;22;20016;-77
2024/01/17 03:40:26;;;;;;;18.30;7.88;;;;;;;;;;6244879;22;20027;-77
2024/01/17 03:42:53;;;;;;;12.07;7.28;;;;;;;;;;6245538;22;20016;-77
2024/01/17 03:45:20;;;;;;;10.82;6.38;;;;;;;;;;6243167;22;20016;-78
2024/01/17 03:47:47;;;;;;;13.38;7.20;;;;;;;;;;6245942;22;20039;-77
2024/01/17 03:50:14;;;;;;;11.90;7.57;;;;;;;;;;6246889;22;20012;-78
2024/01/17 03:52:40;;;;;;;13.35;6.47;;;;;;;;;;6247466;22;20091;-78
2024/01/17 03:55:07;;;;;;;10.32;6.43;;;;;;;;;;6246635;22;20020;-78
2024/01/17 03:57:34;;;;;;;10.13;6.15;;;;;;;;;;6247384;22;20070;-78
2024/01/17 04:00:04;;;;;;;11.57;6.20;;;;;;;;;;6247178;22;20028;-78
2024/01/17 04:02:31;;;;;;;21.00;5.82;;;;;;;;;;6246835;22;20027;-78
2024/01/17 04:04:58;;;;;;;7.40;5.60;;;;;;;;;;6247291;22;20111;-77
2024/01/17 04:07:24;;;;;;;9.30;5.50;;;;;;;;;;6246717;22;20028;-77
2024/01/17 04:09:51;;;;;;;7.05;5.43;;;;;;;;;;6247262;22;20024;-78
2024/01/17 04:12:20;;;;;;;7.53;5.18;;;;;;;;;;6246397;22;20456;-78
2024/01/17 04:14:47;;;;;;;7.50;5.00;;;;;;;;;;6247195;22;20024;-78
2024/01/17 04:17:14;;;;;;;6.03;4.57;;;;;;;;;;6246758;22;20016;-78
2024/01/17 04:19:41;;;;;;;6.25;4.60;;;;;;;;;;6247264;22;20024;-78
2024/01/17 04:22:08;;;;;;;6.13;4.40;;;;;;;;;;6246688;22;20299;-78
2024/01/17 04:24:35;;;;;;;5.30;4.22;;;;;;;;;;6246917;22;20122;-78
2024/01/17 04:27:02;;;;;;;6.28;4.32;;;;;;;;;;6247021;22;20035;-78
2024/01/17 04:29:29;;;;;;;5.63;4.22;;;;;;;;;;6246827;22;20123;-77
2024/01/17 04:31:56;;;;;;;4.70;3.78;;;;;;;;;;6247234;22;20012;-77
2024/01/17 04:34:23;;;;;;;4.93;4.13;;;;;;;;;;6246373;22;20016;-78
2024/01/17 04:36:50;;;;;;;4.63;3.90;;;;;;;;;;6247262;22;20275;-78
2024/01/17 04:39:17;;;;;;;4.75;3.85;;;;;;;;;;6246681;22;20465;-77
2024/01/17 04:41:44;;;;;;;4.88;4.00;;;;;;;;;;6246898;22;20445;-78
2024/01/17 04:44:10;;;;;;;4.72;4.10;;;;;;;;;;6246267;22;20020;-77
2024/01/17 04:46:37;;;;;;;4.65;4.00;;;;;;;;;;6247214;22;20024;-77
2024/01/17 04:49:04;;;;;;;6.28;4.18;;;;;;;;;;6246773;22;20012;-76
2024/01/17 04:51:31;;;;;;;4.57;4.07;;;;;;;;;;6247223;22;20031;-78
2024/01/17 04:53:58;;;;;;;5.65;4.20;;;;;;;;;;6246750;22;20066;-78
2024/01/17 04:56:25;;;;;;;5.18;4.00;;;;;;;;;;6246380;22;20024;-79
2024/01/17 04:58:53;;;;;;;3.70;3.40;;;;;;;;;;6246580;22;20026;-77
2024/01/17 05:01:20;;;;;;;4.07;3.42;;;;;;;;;;6245916;22;20012;-78
2024/01/17 05:03:46;;;;;;;3.50;3.20;;;;;;;;;;6246904;22;20019;-77
2024/01/17 05:06:13;;;;;;;4.30;3.53;;;;;;;;;;6246214;22;20020;-78
2024/01/17 05:08:40;;;;;;;4.13;3.63;;;;;;;;;;6246915;22;20042;-78
2024/01/17 05:11:07;;;;;;;4.53;3.83;;;;;;;;;;6271339;22;20099;-79
2024/01/17 05:13:34;;;;;;;4.55;3.40;;;;;;;;;;6248068;22;20016;-78
2024/01/17 05:16:01;;;;;;;4.57;3.50;;;;;;;;;;6247388;22;20024;-78
2024/01/17 05:18:28;;;;;;;3.50;3.15;;;;;;;;;;6246308;22;20020;-78
2024/01/17 05:20:55;;;;;;;3.50;3.03;;;;;;;;;;6246595;22;20012;-78
2024/01/17 05:23:22;;;;;;;5.57;4.03;;;;;;;;;;6245806;22;20074;-78
2024/01/17 05:25:49;;;;;;;4.25;3.53;;;;;;;;;;6246218;22;20073;-79
2024/01/17 05:28:16;;;;;;;4.43;3.58;;;;;;;;;;6245698;22;20047;-77
2024/01/17 05:30:43;;;;;;;4.60;3.45;;;;;;;;;;6246256;22;20032;-79
2024/01/17 05:33:09;;;;;;;3.65;3.25;;;;;;;;;;6245975;22;20042;-78
2024/01/17 05:35:36;;;;;;;4.35;3.60;;;;;;;;;;6246347;22;20016;-79
2024/01/17 05:38:04;;;;;;;3.28;2.97;;;;;;;;;;6246286;22;20012;-78
2024/01/17 05:40:30;;;;;;;3.88;3.42;;;;;;;;;;6245855;22;20020;-78
2024/01/17 05:42:57;;;;;;;4.07;3.70;;;;;;;;;;6246251;22;20012;-79
2024/01/17 05:45:24;;;;;;;4.13;3.63;;;;;;;;;;6245692;22;20027;-77
2024/01/17 05:47:51;;;;;;;5.63;3.95;;;;;;;;;;6246214;22;20016;-78
2024/01/17 05:50:18;;;;;;;5.68;4.75;;;;;;;;;;6245896;22;20019;-78
2024/01/17 05:52:48;;;;;;;4.63;4.13;;;;;;;;;;6246354;22;20023;-79
2024/01/17 05:55:19;;;;;;;5.28;4.35;;;;;;;;;;6245586;22;20024;-78
2024/01/17 05:57:46;;;;;;;5.32;4.70;;;;;;;;;;6246184;22;20436;-77
2024/01/17 06:00:13;;;;;;;4.60;3.85;;;;;;;;;;6245649;22;20100;-77
2024/01/17 06:02:41;;;;;;;4.18;3.78;;;;;;;;;;6246509;22;20459;-78
2024/01/17 06:05:09;;;;;;;4.35;3.85;;;;;;;;;;6245690;22;20085;-77
2024/01/17 06:07:36;;;;;;;4.90;3.97;;;;;;;;;;6246562;22;20114;-77
2024/01/17 06:10:04;;;;;;;3.97;3.42;;;;;;;;;;6246343;22;20024;-77
2024/01/17 06:12:31;;;;;;;3.80;3.40;;;;;;;;;;6246317;22;20020;-78
2024/01/17 06:14:58;;;;;;;3.70;3.35;;;;;;;;;;6247919;22;20123;-76
2024/01/17 06:17:25;;;;;;;3.90;3.50;;;;;;;;;;6248939;22;20051;-77
2024/01/17 06:19:51;;;;;;;3.13;2.83;;;;;;;;;;6248359;22;20095;-77
2024/01/17 06:22:18;;;;;;;4.95;3.08;;;;;;;;;;6246020;22;20024;-78
2024/01/17 06:24:46;;;;;;;3.40;2.50;;;;;;;;;;6245909;22;20369;-78
2024/01/17 06:27:14;;;;;;;3.65;2.92;;;;;;;;;;6245282;22;20020;-77
2024/01/17 06:29:42;;;;;;;2.95;2.65;;;;;;;;;;6245961;22;20012;-79
2024/01/17 06:32:09;;;;;;;2.97;2.60;;;;;;;;;;6245244;22;20012;-77
2024/01/17 06:34:36;;;;;;;4.00;2.92;;;;;;;;;;6245744;22;20026;-77
2024/01/17 06:37:05;;;;;;;3.40;3.03;;;;;;;;;;6245130;22;20560;-76
2024/01/17 06:39:34;;;;;;;4.10;3.33;;;;;;;;;;6245979;22;20445;-77
2024/01/17 06:42:02;;;;;;;5.68;3.25;;;;;;;;;;6244955;22;20027;-78
2024/01/17 06:44:29;;;;;;;3.50;3.20;;;;;;;;;;6245012;22;20031;-77
2024/01/17 06:46:57;;;;;;;4.35;3.60;;;;;;;;;;6245784;22;20765;-78
2024/01/17 06:49:25;;;;;;;4.20;3.80;;;;;;;;;;6246210;22;20028;-77
2024/01/17 06:51:54;;;;;;;4.05;3.65;;;;;;;;;;6245990;22;20020;-78
2024/01/17 06:54:21;;;;;;;6.00;3.67;;;;;;;;;;6244417;22;20075;-78
2024/01/17 06:56:48;;;;;;;4.43;3.50;;;;;;;;;;6245680;22;20020;-78
2024/01/17 06:59:16;;;;;;;4.00;3.60;;;;;;;;;;6244801;22;20016;-78
2024/01/17 07:01:43;;;;;;;3.85;2.88;;;;;;;;;;6245439;22;20074;-77
2024/01/17 07:04:10;;;;;;;5.22;2.70;;;;;;;;;;6244765;22;20047;-77
2024/01/17 07:06:36;;;;;;;3.47;2.95;;;;;;;;;;6245403;22;20024;-78
2024/01/17 07:09:03;;;;;;;3.28;2.70;;;;;;;;;;6245346;22;20023;-77
2024/01/17 07:11:32;;;;;;;5.00;3.05;;;;;;;;;;6244993;22;20320;-77
2024/01/17 07:14:00;;;;;;;3.95;2.80;;;;;;;;;;6268387;22;20019;-80
2024/01/17 07:16:27;;;;;;;3.92;2.60;;;;;;;;;;6244576;22;20040;-77
2024/01/17 07:18:55;;;;;;;2.60;2.30;;;;;;;;;;6244637;22;20495;-76
2024/01/17 07:21:22;;;;;;;2.78;2.25;;;;;;;;;;6244762;22;20021;-78
2024/01/17 07:23:49;;;;;;;2.63;1.95;;;;;;;;;;6246864;22;20016;-78
2024/01/17 07:26:16;;;;;;;2.15;1.88;;;;;;;;;;6246767;22;20092;-78
2024/01/17 07:28:43;;;;;;;3.05;2.30;;;;;;;;;;6247510;22;20062;-78
2024/01/17 07:31:10;;;;;;;2.33;1.90;;;;;;;;;;6246861;22;20016;-77
2024/01/17 07:33:36;;;;;;;1.95;1.73;;;;;;;;;;6247310;22;20020;-76
2024/01/17 07:36:04;;;;;;;2.95;1.88;;;;;;;;;;6245801;22;20032;-77
2024/01/17 07:38:30;;;;;;;3.38;1.63;;;;;;;;;;6244286;22;20015;-77
2024/01/17 07:40:58;;;;;;;2.03;1.70;;;;;;;;;;6245033;22;20074;-77
2024/01/17 07:43:25;;;;;;;1.58;1.48;;;;;;;;;;6242841;22;20159;-77
2024/01/17 07:45:52;;;;;;;1.50;1.40;;;;;;;;;;6242996;23;20020;-77
2024/01/17 07:48:19;;;;;;;1.65;1.50;;;;;;;;;;6244239;22;20019;-77
2024/01/17 07:50:47;;;;;;;1.65;1.30;;;;;;;;;;6245362;22;20083;-77
2024/01/17 07:53:14;;;;;;;2.20;1.70;;;;;;;;;;6246770;22;20023;-77
2024/01/17 07:55:40;;;;;;;1.58;1.48;;;;;;;;;;6247140;22;20051;-78
2024/01/17 07:58:07;;;;;;;1.55;1.27;;;;;;;;;;6246774;22;20023;-76
2024/01/17 08:00:34;;;;;;;1.42;1.30;;;;;;;;;;6247304;22;20047;-77
2024/01/17 08:03:01;;;;;;;1.67;1.45;;;;;;;;;;6247027;22;20016;-76
2024/01/17 08:05:28;;;;;;;1.98;1.40;;;;;;;;;;6246730;22;20036;-76
2024/01/17 08:07:55;;;;;;;2.92;1.50;;;;;;;;;;6247058;22;20012;-77
2024/01/17 08:10:22;;;;;;;1.40;1.30;;;;;;;;;;6246512;22;20023;-77
2024/01/17 08:12:49;;;;;;;3.40;1.75;;;;;;;;;;6247243;22;20070;-78
2024/01/17 08:15:16;;;;;;;1.70;1.60;;;;;;;;;;6246438;22;20016;-77
2024/01/17 08:17:44;;;;;;;3.15;1.98;;;;;;;;;;6247054;22;20310;-78
2024/01/17 08:20:12;;;;;;;2.00;1.80;;;;;;;;;;6246654;22;20322;-77
2024/01/17 08:22:40;;;;;;;2.10;1.50;;;;;;;;;;6247124;22;20016;-78
2024/01/17 08:25:07;;;;;;;1.80;1.60;;;;;;;;;;6246308;22;20026;-78
2024/01/17 08:27:36;;;;;;;1.73;1.50;;;;;;;;;;6247023;22;20020;-77
2024/01/17 08:30:04;;;;;;;1.60;1.50;;;;;;;;;;6247080;22;20067;-77
2024/01/17 08:32:31;;;;;;;2.95;1.95;;;;;;;;;;6247334;22;20023;-77
2024/01/17 08:34:58;;;;;;;2.28;1.75;;;;;;;;;;6247453;22;20329;-76
2024/01/17 08:37:25;;;;;;;2.90;2.40;;;;;;;;;;6246651;22;20027;-77
2024/01/17 08:39:51;;;;;;;2.40;2.20;;;;;;;;;;6246941;22;20017;-77
2024/01/17 08:42:18;;;;;;;2.65;2.45;;;;;;;;;;6246424;22;20034;-77
2024/01/17 08:44:45;;;;;;;5.78;2.33;;;;;;;;;;6246625;22;20433;-78
2024/01/17 08:47:12;;;;;;;4.85;2.10;;;;;;;;;;6245796;22;20467;-78
2024/01/17 08:49:40;;;;;;;3.55;2.00;;;;;;;;;;6270799;22;20016;-77
2024/01/17 08:52:07;;;;;;;2.72;1.95;;;;;;;;;;6246402;22;20016;-77
2024/01/17 08:54:34;;;;;;;9.38;6.88;;;;;;;;;;6246966;22;20047;-77
2024/01/17 08:57:02;;;;;;;10.18;6.55;;;;;;;;;;6270566;22;20098;-78
2024/01/17 08:59:33;;;;;;;5.10;4.38;;;;;;;;;;6246489;22;20020;-77
2024/01/17 09:02:00;;;;;;;9.13;7.82;;;;;;;;;;6246557;22;20074;-77
2024/01/17 09:04:28;;;;;;;5.53;2.95;;;;;;;;;;6246298;22;20020;-77
2024/01/17 09:06:55;;;;;;;;;;;;;;;;;;6271122;22;20049;-77
2024/01/17 09:09:25;;;;;;;6.28;3.85;;;;;;;;;;6246276;22;19922;-77
2024/01/17 09:11:53;;;;;;;3.20;2.60;;;;;;;;;;6246707;22;20016;-77
2024/01/17 09:14:21;;;;;;;2.50;2.30;;;;;;;;;;6245923;22;20074;-78
2024/01/17 09:16:52;;;;;;;4.78;2.80;;;;;;;;;;6246763;22;20707;-77
2024/01/17 09:19:22;;;;;;;3.10;2.67;;;;;;;;;;6245987;22;20020;-77
2024/01/17 09:21:52;;;;;;;3.15;2.50;;;;;;;;;;6246579;22;20070;-78
2024/01/17 09:24:20;;;;;;;2.50;2.30;;;;;;;;;;6246026;22;20016;-77
2024/01/17 09:26:51;;;;;;;;;;;;;;;;;;6246905;22;20039;-77
2024/01/17 09:29:19;;;;;;;2.17;1.70;;;;;;;;;;6246057;22;19915;-77
2024/01/17 09:31:47;;;;;;;1.40;1.30;;;;;;;;;;6246403;22;20016;-77
2024/01/17 09:34:14;;;;;;;;;;;;;;;;;;6246394;22;20022;-77
2024/01/17 09:36:42;;;;;;;1.35;1.25;;;;;;;;;;6246260;22;19939;-77
2024/01/17 09:39:08;;;;;;;1.83;1.70;;;;;;;;;;6245700;22;20016;-78
2024/01/17 09:41:35;;;;;;;1.60;1.50;;;;;;;;;;6246533;22;20437;-77
2024/01/17 09:44:03;;;;;;;1.67;1.42;;;;;;;;;;6246627;22;20023;-77
2024/01/17 09:46:34;;;;;;;1.48;1.35;;;;;;;;;;6245599;22;20078;-77
2024/01/17 09:49:01;;;;;;;1.25;1.15;;;;;;;;;;6246298;22;20051;-75
2024/01/17 09:51:32;;;;;;;1.88;1.60;;;;;;;;;;6246173;22;20028;-75
2024/01/17 09:54:04;;;;;;;12.75;7.22;;;;;;;;;;6246453;22;20095;-77
2024/01/17 09:56:33;;;;;;;3.85;3.00;;;;;;;;;;6245930;22;20027;-76
2024/01/17 09:59:13;;;;;;;2.08;1.38;;;;;;;;;;6246448;22;20028;-77
2024/01/17 10:01:43;;;;;;;4.68;2.40;;;;;;;;;;6246429;22;20115;-78
2024/01/17 10:04:15;;;;;;;5.18;4.32;;;;;;;;;;6246047;22;20031;-77
2024/01/17 10:06:46;;;;;;;3.28;2.55;;;;;;;;;;6247039;22;20111;-77
2024/01/17 10:09:14;;;;;;;3.45;2.42;;;;;;;;;;6246269;22;20024;-77
2024/01/17 10:11:41;;;;;;;2.40;2.20;;;;;;;;;;6247225;22;20066;-77
2024/01/17 10:14:08;;;;;;;2.55;2.28;;;;;;;;;;6271467;22;20016;-77
2024/01/17 10:16:35;;;;;;;1.90;1.67;;;;;;;;;;6249711;22;20020;-77
2024/01/17 10:19:04;;;;;;;4.22;3.00;;;;;;;;;;6252234;22;20052;-77
2024/01/17 10:21:33;;;;;;;2.38;1.63;;;;;;;;;;6246605;22;20092;-76
2024/01/17 10:24:01;;;;;;;3.30;1.63;;;;;;;;;;6246929;22;20070;-76
2024/01/17 10:26:29;;;;;;;1.63;1.40;;;;;;;;;;6245485;22;20042;-76
2024/01/17 10:28:57;;;;;;;1.95;1.85;;;;;;;;;;6245968;22;20020;-77
2024/01/17 10:31:24;;;;;;;2.83;2.38;;;;;;;;;;6245098;22;20028;-77
2024/01/17 10:33:51;;;;;;;2.10;1.70;;;;;;;;;;6245708;22;20016;-76
2024/01/17 10:36:18;;;;;;;3.53;1.98;;;;;;;;;;6245063;22;20027;-76
2024/01/17 10:38:46;;;;;;;1.77;1.67;;;;;;;;;;6245530;22;20016;-77
2024/01/17 10:41:13;;;;;;;3.47;2.10;;;;;;;;;;6244834;22;20022;-77
2024/01/17 10:43:53;;;;;;;2.47;1.80;;;;;;;;;;6245767;22;20530;-77
2024/01/17 10:46:20;;;;;;;2.00;1.70;;;;;;;;;;6244836;22;20448;-76
2024/01/17 10:48:47;;;;;;;2.40;1.88;;;;;;;;;;6245713;22;20368;-76
2024/01/17 10:51:20;;;;;;;2.95;2.10;;;;;;;;;;6245080;22;20012;-76
2024/01/17 10:53:49;;;;;;;2.03;1.67;;;;;;;;;;6245648;22;20023;-77
2024/01/17 10:56:22;;;;;;;1.95;1.75;;;;;;;;;;6244861;22;20020;-76
2024/01/17 10:58:51;;;;;;;1.90;1.50;;;;;;;;;;6245348;22;20091;-75
2024/01/17 11:01:31;;;;;;;2.38;1.40;;;;;;;;;;6244855;22;20016;-76
2024/01/17 11:04:10;;;;;;;1.95;1.65;;;;;;;;;;6245817;22;20020;-76
2024/01/17 11:06:38;;;;;;;1.55;1.40;;;;;;;;;;6245508;22;20047;-77
2024/01/17 11:09:07;;;;;;;1.58;1.20;;;;;;;;;;6245180;22;20020;-75
2024/01/17 11:11:35;;;;;;;2.38;1.52;;;;;;;;;;6245437;22;20012;-77
2024/01/17 11:14:03;;;;;;;1.83;1.13;;;;;;;;;;6245614;22;20023;-77
2024/01/17 11:16:30;;;;;;;1.42;1.27;;;;;;;;;;6243777;23;20036;-77
2024/01/17 11:19:00;;;;;;;1.77;1.50;;;;;;;;;;6245423;22;20356;-78
2024/01/17 11:21:30;;;;;;;2.63;1.40;;;;;;;;;;6244953;22;20020;-77
2024/01/17 11:24:04;;;;;;;1.40;1.17;;;;;;;;;;6245917;22;20012;-77
2024/01/17 11:26:56;;;;;;;1.58;1.13;;;;;;;;;;6245107;22;20016;-77
2024/01/17 11:29:43;;;;;;;1.77;1.30;;;;;;;;;;6238654;22;20074;-77
2024/01/17 11:32:20;;;;;;;1.30;0.93;;;;;;;;;;6247881;22;20017;-76
2024/01/17 11:34:48;;;;;;;8.02;3.15;;;;;;;;;;6247519;22;20027;-76
2024/01/17 11:37:34;;;;;;;34.05;12.52;;;;;;;;;;6245718;22;20012;-76
2024/01/17 11:40:01;;;;;;;5.78;2.17;;;;;;;;;;6245585;22;20043;-77
2024/01/17 11:42:28;;;;;;;5.32;1.73;;;;;;;;;;6244947;22;20019;-77
2024/01/17 11:44:55;;;;;;;21.65;11.23;;;;;;;;;;6245314;22;20417;-78
2024/01/17 11:47:38;;;;;;;7.82;4.50;;;;;;;;;;6243855;22;20024;-78
2024/01/17 11:50:08;;;;;;;11.20;4.88;;;;;;;;;;6244772;22;20032;-76
2024/01/17 11:52:37;;;;;;;10.48;5.30;;;;;;;;;;6245489;22;20016;-76
2024/01/17 11:55:05;;;;;;;5.55;3.60;;;;;;;;;;6244570;22;20020;-74
2024/01/17 11:57:35;;;;;;;34.20;13.75;;;;;;;;;;6245719;22;20091;-76
2024/01/17 12:00:07;;;;;;;4.45;2.15;;;;;;;;;;6245453;22;20020;-76
2024/01/17 12:02:35;;;;;;;11.93;5.35;;;;;;;;;;6268820;22;20024;-77
2024/01/17 12:05:07;;;;;;;;;;;;;;;;;;6245798;22;20405;-76
2024/01/17 12:07:38;;;;;;;30.20;21.10;;;;;;;;;;6245280;22;19916;-77
2024/01/17 12:10:10;;;;;;;5.85;3.53;;;;;;;;;;6246309;22;20090;-75
2024/01/17 12:12:43;;;;;;;11.98;6.43;;;;;;;;;;6247663;22;20066;-77
2024/01/17 12:15:11;;;;;;;21.23;17.25;;;;;;;;;;6246437;22;20043;-78
2024/01/17 12:17:40;;;;;;;12.70;6.82;;;;;;;;;;6245512;23;20440;-76
2024/01/17 12:20:08;;;;;;;14.05;12.80;;;;;;;;;;6246431;22;20016;-76
2024/01/17 12:22:35;;;;;;;8.07;4.72;;;;;;;;;;6247153;22;20322;-77
2024/01/17 12:25:02;;;;;;;15.23;6.88;;;;;;;;;;6246987;22;20455;-77
2024/01/17 12:27:33;;;;;;;8.30;4.43;;;;;;;;;;6246590;22;20036;-77
2024/01/17 12:30:04;;;;;;;20.83;6.90;;;;;;;;;;6246954;22;20090;-77
2024/01/17 12:32:33;;;;;;;99.72;13.77;;;;;;;;;;6246810;22;20020;-77
2024/01/17 12:35:00;;;;;;;96.50;11.50;;;;;;;;;;6246923;22;20028;-76
2024/01/17 12:37:28;;;;;;;117.25;12.43;;;;;;;;;;6246249;22;20028;-77
2024/01/17 12:39:55;;;;;;;104.50;12.60;;;;;;;;;;6246222;22;20023;-77
2024/01/17 12:42:22;;;;;;;111.68;11.68;;;;;;;;;;6245281;22;20020;-78
2024/01/17 12:44:49;;;;;;;124.68;15.35;;;;;;;;;;6246527;22;20030;-78
2024/01/17 12:47:17;;;;;;;128.15;12.82;;;;;;;;;;6269827;22;20384;-78
2024/01/17 12:49:47;;;;;;;111.22;11.65;;;;;;;;;;6246796;22;20022;-77
2024/01/17 12:52:16;;;;;;;107.82;13.35;;;;;;;;;;6244928;22;20020;-78
2024/01/17 12:54:43;;;;;;;128.60;14.20;;;;;;;;;;6245339;22;20433;-77
2024/01/17 12:57:12;;;;;;;107.75;11.88;;;;;;;;;;6245753;22;20074;-77
2024/01/17 12:59:39;;;;;;;117.57;12.20;;;;;;;;;;6246634;22;20016;-77
2024/01/17 13:02:14;;;;;;;111.18;12.80;;;;;;;;;;6245733;22;20092;-77
2024/01/17 13:04:41;;;;;;;113.60;13.18;;;;;;;;;;6246568;22;20020;-79
2024/01/17 13:07:08;;;;;;;138.45;13.75;;;;;;;;;;6245860;22;20021;-78
2024/01/17 13:09:42;;;;;;;118.85;14.57;;;;;;;;;;6246451;22;20047;-78
2024/01/17 13:12:10;;;;;;;98.63;11.77;;;;;;;;;;6244338;22;20020;-78
2024/01/17 13:14:39;;;;;;;109.85;13.18;;;;;;;;;;6246606;22;20329;-78
2024/01/17 13:17:14;;;;;;;123.15;12.63;;;;;;;;;;6245553;22;20016;-77
2024/01/17 13:19:41;;;;;;;111.70;11.85;;;;;;;;;;6246131;22;20017;-78
2024/01/17 13:22:08;;;;;;;100.45;11.75;;;;;;;;;;6245419;22;20329;-78
2024/01/17 13:24:34;;;;;;;127.97;18.90;;;;;;;;;;6246401;22;20024;-78
2024/01/17 13:27:02;;;;;;;117.45;19.48;;;;;;;;;;6246094;22;20034;-78
2024/01/17 13:29:29;;;;;;;99.60;11.80;;;;;;;;;;6245818;22;20016;-77
2024/01/17 13:31:56;;;;;;;95.07;11.98;;;;;;;;;;6246234;22;20038;-77
2024/01/17 13:34:22;;;;;;;101.30;10.25;;;;;;;;;;6245655;22;20026;-78
2024/01/17 13:36:50;;;;;;;77.18;9.10;;;;;;;;;;6245975;22;20017;-77
2024/01/17 13:39:17;;;;;;;81.00;9.20;;;;;;;;;;6245556;22;20012;-78
2024/01/17 13:41:44;;;;;;;67.80;7.25;;;;;;;;;;6245955;22;20091;-78
2024/01/17 13:44:11;;;;;;;71.00;7.88;;;;;;;;;;6245716;22;20095;-77
2024/01/17 13:46:38;;;;;;;68.78;6.97;;;;;;;;;;6246415;22;20008;-79
2024/01/17 13:49:07;;;;;;;68.82;7.57;;;;;;;;;;6245291;22;20016;-77
2024/01/17 13:51:43;;;;;;;68.25;8.35;;;;;;;;;;6246669;22;20096;-78
2024/01/17 13:54:15;;;;;;;58.53;7.05;;;;;;;;;;6246895;22;20023;-78
2024/01/17 13:56:43;;;;;;;54.78;5.45;;;;;;;;;;6246933;22;20024;-77
2024/01/17 13:59:10;;;;;;;62.88;7.75;;;;;;;;;;6246734;22;20449;-77
2024/01/17 14:01:37;;;;;;;72.40;8.27;;;;;;;;;;6248674;22;20022;-78
2024/01/17 14:04:04;;;;;;;74.47;9.02;;;;;;;;;;6246495;22;20017;-77
2024/01/17 14:06:31;;;;;;;95.90;10.65;;;;;;;;;;6245670;22;20353;-77
2024/01/17 14:08:58;;;;;;;84.28;8.60;;;;;;;;;;6244740;22;20104;-78
2024/01/17 14:11:25;;;;;;;69.55;7.47;;;;;;;;;;6244498;22;20020;-78
2024/01/17 14:13:51;;;;;;;67.13;6.05;;;;;;;;;;6245767;22;20012;-77
2024/01/17 14:16:18;;;;;;;64.68;7.45;;;;;;;;;;6245010;22;20023;-77
2024/01/17 14:18:45;;;;;;;78.22;8.23;;;;;;;;;;6245920;22;20016;-79
2024/01/17 14:21:12;;;;;;;68.38;7.97;;;;;;;;;;6245124;22;20016;-78
2024/01/17 14:23:42;;;;;;;96.68;9.45;;;;;;;;;;6245855;22;20023;-78
2024/01/17 14:26:09;;;;;;;89.57;9.85;;;;;;;;;;6245112;22;20024;-78
2024/01/17 14:28:36;;;;;;;92.45;9.98;;;;;;;;;;6244628;22;20380;-78
2024/01/17 14:31:03;;;;;;;106.90;9.93;;;;;;;;;;6243158;22;20333;-78
2024/01/17 14:33:29;;;;;;;104.32;11.38;;;;;;;;;;6242695;22;20031;-77
2024/01/17 14:35:56;;;;;;;109.63;10.48;;;;;;;;;;6243111;22;20016;-78
2024/01/17 14:38:23;;;;;;;116.93;12.60;;;;;;;;;;6242712;22;20315;-78
2024/01/17 14:40:50;;;;;;;93.88;10.70;;;;;;;;;;6243372;22;20020;-78